Time;durP1;ratioP1;P1;durP2;ratioP2;P2;SDS_P1;SDS_P2;PMS_P1;PMS_P2;Temp;Humidity;BMP_temperature;BMP_pressure;BME280_temperature;BME280_humidity;BME280_pressure;Samples;Min_cycle;Max_cycle;Signal;HPM_P1;HPM_P2
2023/03/09 00:01:44;;;;;;;13.73;7.60;;;1.50;99.90;;;;;;5045574;28;20180;-70
2023/03/09 00:04:14;;;;;;;12.40;8.20;;;1.50;99.90;;;;;;5039720;28;20774;-69
2023/03/09 00:06:41;;;;;;;11.80;7.23;;;1.50;99.90;;;;;;5037027;28;20434;-69
2023/03/09 00:09:07;;;;;;;9.90;6.73;;;1.50;99.90;;;;;;5040396;28;20441;-72
2023/03/09 00:11:33;;;;;;;12.63;8.10;;;1.50;99.90;;;;;;5037162;28;20417;-71
2023/03/09 00:13:59;;;;;;;14.27;9.30;;;1.60;99.90;;;;;;5042582;28;20410;-71
2023/03/09 00:16:26;;;;;;;13.30;8.63;;;1.50;99.90;;;;;;5036725;28;20665;-70
2023/03/09 00:18:54;;;;;;;16.93;8.40;;;1.60;99.90;;;;;;5044184;28;20179;-68
2023/03/09 00:24:14;;;;;;;20.27;9.13;;;1.50;99.90;;;;;;5034042;28;20412;-69
2023/03/09 00:26:42;;;;;;;13.70;9.13;;;1.50;99.90;;;;;;5038242;28;20452;-72
2023/03/09 00:29:10;;;;;;;12.13;7.80;;;1.50;99.90;;;;;;5035256;28;20445;-70
2023/03/09 00:31:36;;;;;;;16.13;12.17;;;1.50;99.90;;;;;;5046726;28;20424;-69
2023/03/09 00:34:02;;;;;;;16.07;9.37;;;1.50;99.90;;;;;;5046723;28;20508;-71
2023/03/09 00:36:27;;;;;;;12.47;9.67;;;1.50;99.90;;;;;;5042881;28;20469;-70
2023/03/09 00:38:55;;;;;;;14.23;8.93;;;1.50;99.90;;;;;;5025672;28;20174;-69
2023/03/09 00:41:22;;;;;;;13.73;8.50;;;1.50;99.90;;;;;;5036165;28;20212;-69
2023/03/09 00:43:47;;;;;;;14.90;9.03;;;1.50;99.90;;;;;;5051620;28;20435;-72
2023/03/09 00:46:14;;;;;;;20.13;10.00;;;1.50;99.90;;;;;;5049428;28;20429;-70
2023/03/09 00:48:40;;;;;;;15.97;9.97;;;1.50;99.90;;;;;;5046949;28;20209;-71
2023/03/09 00:51:07;;;;;;;17.57;10.03;;;1.50;99.90;;;;;;5042325;28;20892;-70
2023/03/09 00:53:33;;;;;;;16.80;10.07;;;1.50;99.90;;;;;;5046674;28;20465;-70
2023/03/09 00:56:07;;;;;;;14.23;9.20;;;1.60;99.90;;;;;;5050812;28;20457;-69
2023/03/09 00:58:33;;;;;;;20.30;11.90;;;1.50;99.90;;;;;;5041841;28;20704;-68
2023/03/09 01:00:58;;;;;;;15.87;10.07;;;1.50;99.90;;;;;;5050273;28;20552;-69
2023/03/09 01:03:24;;;;;;;15.80;10.83;;;1.50;99.90;;;;;;5037981;28;20171;-72
2023/03/09 01:05:50;;;;;;;16.70;9.23;;;1.50;99.90;;;;;;5042474;28;20693;-70
2023/03/09 01:08:16;;;;;;;14.27;9.30;;;1.50;99.90;;;;;;5049954;28;20210;-70
2023/03/09 01:10:42;;;;;;;18.77;10.50;;;1.50;99.90;;;;;;5025670;28;20423;-69
2023/03/09 01:13:09;;;;;;;14.97;8.73;;;1.50;99.90;;;;;;5017173;28;20615;-70
2023/03/09 01:15:35;;;;;;;14.80;8.90;;;1.50;99.90;;;;;;5045775;28;20844;-68
2023/03/09 01:18:01;;;;;;;16.30;9.60;;;1.50;99.90;;;;;;5050295;28;20921;-69
2023/03/09 01:20:27;;;;;;;16.80;9.43;;;1.50;99.90;;;;;;5042629;28;20560;-71
2023/03/09 01:22:53;;;;;;;14.60;8.87;;;1.50;99.90;;;;;;5020596;28;20180;-71
2023/03/09 01:25:18;;;;;;;14.90;10.37;;;1.50;99.90;;;;;;5042297;28;20681;-68
2023/03/09 01:27:44;;;;;;;17.27;8.93;;;1.50;99.90;;;;;;5040551;28;20254;-69
2023/03/09 01:30:12;;;;;;;12.20;8.00;;;1.50;99.90;;;;;;5049618;28;20175;-68
2023/03/09 01:32:38;;;;;;;16.73;9.63;;;1.50;99.90;;;;;;5035961;28;20722;-69
2023/03/09 01:35:05;;;;;;;16.60;10.00;;;1.50;99.90;;;;;;5041786;28;20476;-72
2023/03/09 01:37:30;;;;;;;15.97;9.17;;;1.50;99.90;;;;;;5027623;28;20182;-69
2023/03/09 01:39:56;;;;;;;15.70;8.77;;;1.50;99.90;;;;;;5044362;28;20454;-69
2023/03/09 01:42:22;;;;;;;14.67;9.57;;;1.50;99.90;;;;;;5027808;28;20178;-70
2023/03/09 01:45:06;;;;;;;17.83;10.23;;;1.50;99.90;;;;;;5046825;28;20782;-71
2023/03/09 01:47:32;;;;;;;12.90;9.30;;;1.40;99.90;;;;;;5032934;28;20179;-68
2023/03/09 01:49:58;;;;;;;13.70;9.80;;;1.40;99.90;;;;;;5043941;28;20566;-71
2023/03/09 01:52:30;;;;;;;21.47;11.47;;;1.40;99.90;;;;;;5034369;28;20179;-68
2023/03/09 01:55:07;;;;;;;14.37;9.50;;;1.40;99.90;;;;;;5023038;28;20198;-71
2023/03/09 01:57:46;;;;;;;15.70;11.43;;;1.40;99.90;;;;;;5034661;28;20769;-68
2023/03/09 02:00:33;;;;;;;15.33;9.17;;;1.40;99.90;;;;;;5044664;28;20540;-68
2023/03/09 02:03:12;;;;;;;15.93;9.87;;;1.40;99.90;;;;;;5050548;28;20409;-69
2023/03/09 02:05:58;;;;;;;14.33;9.53;;;1.40;99.90;;;;;;5040035;28;20429;-69
2023/03/09 02:08:26;;;;;;;15.40;9.40;;;1.30;99.90;;;;;;5048091;28;20412;-69
2023/03/09 02:10:56;;;;;;;17.33;11.07;;;1.30;99.90;;;;;;5041790;28;20492;-68
2023/03/09 02:13:27;;;;;;;18.00;11.00;;;1.30;99.90;;;;;;5049204;28;20552;-68
2023/03/09 02:15:53;;;;;;;14.53;9.30;;;1.30;99.90;;;;;;5054508;22;20497;-64
2023/03/09 02:18:19;;;;;;;18.83;11.53;;;1.30;99.90;;;;;;5030869;28;20448;-64
2023/03/09 02:21:21;;;;;;;18.90;9.13;;;1.30;99.90;;;;;;5041536;28;20610;-64
2023/03/09 02:23:54;;;;;;;11.83;8.07;;;1.30;99.90;;;;;;5031094;28;20759;-64
2023/03/09 02:26:41;;;;;;;17.27;9.43;;;1.30;99.90;;;;;;5040193;28;20426;-64
2023/03/09 02:29:07;;;;;;;17.30;11.03;;;1.20;99.90;;;;;;5037410;28;20402;-61
2023/03/09 02:31:33;;;;;;;14.50;9.67;;;1.20;99.90;;;;;;5045752;28;20410;-64
2023/03/09 02:33:59;;;;;;;18.00;10.07;;;1.20;99.90;;;;;;5044327;28;20409;-66
2023/03/09 02:36:25;;;;;;;19.60;11.33;;;1.20;99.90;;;;;;5033013;28;20252;-64
2023/03/09 02:39:21;;;;;;;20.60;10.90;;;1.10;99.90;;;;;;5045647;28;20179;-65
2023/03/09 02:41:46;;;;;;;20.70;9.70;;;1.10;99.90;;;;;;5024438;28;20434;-64
2023/03/09 02:44:13;;;;;;;17.13;11.17;;;1.10;99.90;;;;;;5047743;28;20500;-65
2023/03/09 02:46:39;;;;;;;16.03;10.17;;;1.10;99.90;;;;;;5034625;28;20593;-65
2023/03/09 02:49:05;;;;;;;17.17;11.20;;;1.00;99.90;;;;;;5040505;28;20410;-65
2023/03/09 02:51:30;;;;;;;24.73;14.20;;;1.00;99.90;;;;;;5045318;28;20226;-63
2023/03/09 02:53:56;;;;;;;21.10;12.20;;;1.00;99.90;;;;;;5040313;28;20262;-64
2023/03/09 02:56:21;;;;;;;18.37;10.70;;;1.00;99.90;;;;;;5040014;28;20576;-63
2023/03/09 02:58:47;;;;;;;13.33;10.33;;;1.00;99.90;;;;;;5029913;28;20224;-64
2023/03/09 03:01:12;;;;;;;14.87;9.30;;;1.00;99.90;;;;;;5035308;28;20254;-64
2023/03/09 03:03:38;;;;;;;20.20;9.40;;;0.90;99.90;;;;;;5044987;28;20170;-62
2023/03/09 03:06:04;;;;;;;16.90;10.97;;;0.90;99.90;;;;;;5040535;28;20232;-65
2023/03/09 03:08:30;;;;;;;17.37;10.53;;;0.90;99.90;;;;;;5044279;28;20221;-63
2023/03/09 03:10:56;;;;;;;26.40;10.43;;;0.90;99.90;;;;;;5039144;28;20914;-65
2023/03/09 03:13:21;;;;;;;20.93;9.17;;;0.90;99.90;;;;;;5040685;28;20414;-63
2023/03/09 03:15:47;;;;;;;19.77;8.70;;;0.90;99.90;;;;;;5039310;28;20207;-63
2023/03/09 03:18:12;;;;;;;16.73;10.60;;;0.80;99.90;;;;;;5039079;28;20171;-62
2023/03/09 03:20:38;;;;;;;19.40;10.10;;;0.90;99.90;;;;;;5041986;28;20195;-63
2023/03/09 03:23:04;;;;;;;15.47;9.63;;;0.90;99.90;;;;;;5031210;28;20182;-64
2023/03/09 03:25:29;;;;;;;14.00;8.73;;;0.90;99.90;;;;;;5038632;28;20298;-64
2023/03/09 03:27:55;;;;;;;24.30;9.57;;;0.80;99.90;;;;;;5039276;28;20361;-63
2023/03/09 03:30:20;;;;;;;16.97;9.80;;;0.80;99.90;;;;;;5045346;28;20174;-64
2023/03/09 03:32:51;;;;;;;20.80;9.73;;;0.80;99.90;;;;;;5031927;28;20176;-64
2023/03/09 03:35:17;;;;;;;15.70;9.20;;;0.80;99.90;;;;;;5038262;28;20179;-64
2023/03/09 03:37:42;;;;;;;16.03;8.97;;;0.80;99.90;;;;;;5021496;28;20801;-64
2023/03/09 03:40:08;;;;;;;17.20;10.87;;;0.80;99.90;;;;;;5039026;28;20207;-64
2023/03/09 03:42:34;;;;;;;15.87;10.10;;;0.80;99.90;;;;;;5039228;28;20193;-65
2023/03/09 03:44:59;;;;;;;15.90;10.10;;;0.70;99.90;;;;;;5038956;28;20509;-64
2023/03/09 03:47:25;;;;;;;22.00;11.33;;;0.70;99.90;;;;;;5045145;28;20226;-64
2023/03/09 03:49:51;;;;;;;22.20;10.77;;;0.70;99.90;;;;;;5033632;28;20180;-65
2023/03/09 03:52:16;;;;;;;11.67;8.27;;;0.70;99.90;;;;;;5038417;28;20641;-65
2023/03/09 03:54:42;;;;;;;19.70;10.67;;;0.70;99.90;;;;;;5038516;28;20176;-64
2023/03/09 03:57:07;;;;;;;16.50;10.23;;;0.70;99.90;;;;;;5043755;28;20205;-63
2023/03/09 03:59:33;;;;;;;17.10;8.27;;;0.60;99.90;;;;;;5037881;28;20207;-63
2023/03/09 04:01:59;;;;;;;15.27;9.87;;;0.60;99.90;;;;;;5034797;28;20183;-64
2023/03/09 04:04:24;;;;;;;20.50;10.47;;;0.60;99.90;;;;;;5048768;28;20168;-64
2023/03/09 04:06:50;;;;;;;16.23;8.90;;;0.60;99.90;;;;;;5035719;28;20187;-63
2023/03/09 04:09:16;;;;;;;14.40;8.80;;;0.60;99.90;;;;;;5044704;28;20262;-64
2023/03/09 04:11:41;;;;;;;14.80;9.50;;;0.60;99.90;;;;;;5046631;28;20172;-64
2023/03/09 04:14:07;;;;;;;17.03;10.63;;;0.60;99.90;;;;;;5035468;28;20202;-63
2023/03/09 04:16:32;;;;;;;16.60;9.10;;;0.60;99.90;;;;;;5042489;28;20319;-66
2023/03/09 04:18:58;;;;;;;17.57;10.43;;;0.50;99.90;;;;;;5038384;28;20172;-64
2023/03/09 04:21:23;;;;;;;13.33;8.70;;;0.60;99.90;;;;;;5042428;28;20189;-64
2023/03/09 04:23:49;;;;;;;22.57;9.60;;;0.50;99.90;;;;;;5042594;28;20660;-64
2023/03/09 04:26:14;;;;;;;16.57;10.60;;;0.60;99.90;;;;;;5034490;28;20271;-64
2023/03/09 04:28:40;;;;;;;17.70;10.10;;;0.60;99.90;;;;;;5037605;28;20719;-63
2023/03/09 04:31:06;;;;;;;22.17;11.70;;;0.60;99.90;;;;;;5043124;28;20171;-64
2023/03/09 04:33:31;;;;;;;19.77;10.67;;;0.60;99.90;;;;;;5044819;28;20476;-64
2023/03/09 04:35:57;;;;;;;16.80;11.03;;;0.60;99.90;;;;;;5035931;28;20573;-63
2023/03/09 04:38:22;;;;;;;19.37;11.17;;;0.60;99.90;;;;;;5042420;28;20621;-64
2023/03/09 04:40:48;;;;;;;23.23;10.23;;;0.60;99.90;;;;;;5042437;28;20199;-65
2023/03/09 04:43:14;;;;;;;14.00;10.00;;;0.60;99.90;;;;;;5034324;28;20230;-64
2023/03/09 04:45:39;;;;;;;21.13;11.27;;;0.60;99.90;;;;;;5037721;28;20254;-64
2023/03/09 04:48:05;;;;;;;25.00;13.97;;;0.60;99.90;;;;;;5041925;28;20314;-64
2023/03/09 04:50:31;;;;;;;24.93;12.80;;;0.60;99.90;;;;;;5037467;28;20178;-64
2023/03/09 04:52:57;;;;;;;16.83;11.70;;;0.60;99.90;;;;;;5042109;28;20406;-64
2023/03/09 04:55:23;;;;;;;18.37;11.63;;;0.60;99.90;;;;;;5041631;28;20184;-64
2023/03/09 04:57:49;;;;;;;21.10;11.77;;;0.70;99.90;;;;;;5041979;28;20456;-64
2023/03/09 05:00:15;;;;;;;19.60;14.07;;;0.70;99.90;;;;;;5033719;28;20446;-64
2023/03/09 05:02:41;;;;;;;22.30;11.73;;;0.70;99.90;;;;;;5023686;28;20754;-65
2023/03/09 05:05:08;;;;;;;18.87;13.73;;;0.70;99.90;;;;;;5034118;28;20594;-65
2023/03/09 05:07:35;;;;;;;21.57;12.00;;;0.70;99.90;;;;;;5039954;28;20445;-65
2023/03/09 05:10:00;;;;;;;18.60;11.47;;;0.70;99.90;;;;;;5042967;28;20429;-65
2023/03/09 05:12:31;;;;;;;23.23;13.03;;;0.70;99.90;;;;;;5039610;28;20849;-64
2023/03/09 05:14:57;;;;;;;20.37;12.40;;;0.70;99.90;;;;;;5036280;28;20172;-65
2023/03/09 05:17:23;;;;;;;20.50;12.93;;;0.70;99.90;;;;;;5036976;28;20450;-65
2023/03/09 05:19:49;;;;;;;21.33;12.63;;;0.70;99.90;;;;;;5041133;28;20453;-65
2023/03/09 05:22:15;;;;;;;18.83;12.23;;;0.70;99.90;;;;;;5043905;28;20445;-65
2023/03/09 05:24:41;;;;;;;20.83;11.80;;;0.70;99.90;;;;;;5044685;28;20173;-65
2023/03/09 05:27:07;;;;;;;22.00;13.10;;;0.70;99.90;;;;;;5041541;28;20425;-64
2023/03/09 05:29:32;;;;;;;16.70;10.70;;;0.70;99.90;;;;;;5040437;28;20178;-65
2023/03/09 05:31:58;;;;;;;20.80;12.90;;;0.70;99.90;;;;;;5042651;28;20163;-65
2023/03/09 05:34:23;;;;;;;20.97;10.57;;;0.70;99.90;;;;;;5043209;28;20179;-64
2023/03/09 05:36:49;;;;;;;18.40;10.60;;;0.70;99.90;;;;;;5038035;28;20199;-65
2023/03/09 05:39:15;;;;;;;19.90;12.30;;;0.70;99.90;;;;;;5040714;28;20546;-65
2023/03/09 05:41:41;;;;;;;21.87;13.47;;;0.70;99.90;;;;;;5044435;28;20498;-64
2023/03/09 05:44:06;;;;;;;23.00;11.60;;;0.80;99.90;;;;;;5036032;28;20342;-65
2023/03/09 05:46:32;;;;;;;17.23;10.80;;;0.70;99.90;;;;;;5040450;28;20217;-63
2023/03/09 05:48:58;;;;;;;23.43;14.07;;;0.70;99.90;;;;;;5040263;28;20371;-64
2023/03/09 05:51:23;;;;;;;18.53;12.20;;;0.70;99.90;;;;;;5036928;28;20293;-66
2023/03/09 05:53:49;;;;;;;15.90;10.40;;;0.80;99.90;;;;;;5034337;28;20184;-66
2023/03/09 05:56:14;;;;;;;17.90;10.27;;;0.70;99.90;;;;;;5038554;28;20196;-66
2023/03/09 05:58:40;;;;;;;20.27;10.53;;;0.70;99.90;;;;;;5046854;28;20175;-64
2023/03/09 06:01:19;;;;;;;15.77;8.90;;;0.70;99.90;;;;;;5033361;28;20278;-65
2023/03/09 06:03:45;;;;;;;18.60;12.70;;;0.70;99.90;;;;;;5044129;28;20179;-67
2023/03/09 06:06:10;;;;;;;20.43;11.77;;;0.60;99.90;;;;;;5035499;28;20434;-67
2023/03/09 06:08:36;;;;;;;16.40;10.77;;;0.70;99.90;;;;;;5041814;28;20433;-64
2023/03/09 06:11:02;;;;;;;20.70;11.43;;;0.70;99.90;;;;;;5045737;28;20236;-64
2023/03/09 06:13:27;;;;;;;19.93;10.90;;;0.70;99.90;;;;;;5040254;28;20262;-64
2023/03/09 06:15:53;;;;;;;14.30;11.03;;;0.70;99.90;;;;;;5038465;28;20207;-63
2023/03/09 06:18:20;;;;;;;19.80;11.17;;;0.70;99.90;;;;;;5041985;28;20197;-65
2023/03/09 06:20:47;;;;;;;15.03;10.37;;;0.70;99.90;;;;;;5045526;28;20544;-65
2023/03/09 06:23:12;;;;;;;19.77;11.03;;;0.70;99.90;;;;;;5036845;28;20411;-66
2023/03/09 06:25:38;;;;;;;14.57;10.43;;;0.70;99.90;;;;;;5032672;28;20783;-65
2023/03/09 06:28:04;;;;;;;16.93;11.10;;;0.70;99.90;;;;;;5037403;28;20175;-64
2023/03/09 06:30:29;;;;;;;17.03;11.10;;;0.70;99.90;;;;;;5043459;28;20175;-65
2023/03/09 06:32:56;;;;;;;16.70;11.33;;;0.70;99.90;;;;;;5032164;28;20284;-66
2023/03/09 06:35:22;;;;;;;19.50;12.10;;;0.80;99.90;;;;;;5044350;28;20174;-66
2023/03/09 06:37:48;;;;;;;17.40;9.77;;;0.80;99.90;;;;;;5045420;28;20448;-64
2023/03/09 06:40:13;;;;;;;15.60;10.33;;;0.80;99.90;;;;;;5042083;28;20935;-65
2023/03/09 06:42:40;;;;;;;23.90;12.30;;;0.80;99.90;;;;;;5014048;28;20616;-66
2023/03/09 06:45:07;;;;;;;18.60;11.00;;;0.80;99.90;;;;;;5039558;28;20204;-65
2023/03/09 06:47:32;;;;;;;18.70;10.90;;;0.80;99.90;;;;;;5032449;28;20438;-65
2023/03/09 06:49:58;;;;;;;20.97;10.87;;;0.90;99.90;;;;;;5031596;28;20764;-64
2023/03/09 06:52:25;;;;;;;16.17;10.90;;;0.90;99.90;;;;;;5045613;28;20209;-66
2023/03/09 06:54:51;;;;;;;17.90;11.17;;;0.80;99.90;;;;;;5044736;28;20182;-66
2023/03/09 06:57:17;;;;;;;16.50;10.80;;;0.90;99.90;;;;;;5040979;28;20445;-65
2023/03/09 06:59:43;;;;;;;16.90;8.30;;;0.90;99.90;;;;;;5031182;28;20456;-66
2023/03/09 07:02:13;;;;;;;16.03;9.23;;;1.00;99.90;;;;;;5039511;28;20406;-65
2023/03/09 07:04:39;;;;;;;15.87;10.67;;;1.00;99.90;;;;;;5035534;28;20302;-65
2023/03/09 07:07:05;;;;;;;16.13;10.20;;;1.00;99.90;;;;;;5036975;28;20437;-65
2023/03/09 07:09:31;;;;;;;15.10;10.67;;;1.00;99.90;;;;;;5042338;28;20410;-65
2023/03/09 07:11:58;;;;;;;16.93;11.00;;;1.00;99.90;;;;;;5037835;28;20168;-65
2023/03/09 07:14:24;;;;;;;18.90;11.27;;;1.00;99.90;;;;;;5039324;28;20514;-65
2023/03/09 07:16:54;;;;;;;16.27;12.50;;;1.00;99.90;;;;;;5042193;28;21032;-65
2023/03/09 07:19:20;;;;;;;15.67;10.33;;;1.00;99.90;;;;;;5039473;28;20734;-65
2023/03/09 07:21:46;;;;;;;17.60;10.40;;;1.00;99.90;;;;;;5043298;28;20462;-66
2023/03/09 07:24:12;;;;;;;13.70;11.20;;;1.00;99.90;;;;;;5024103;28;20933;-65
2023/03/09 07:26:37;;;;;;;13.13;10.13;;;1.00;99.90;;;;;;5041429;28;20494;-64
2023/03/09 07:29:03;;;;;;;16.80;11.70;;;1.10;99.90;;;;;;5039217;28;20488;-65
2023/03/09 07:31:29;;;;;;;17.23;10.67;;;1.10;99.90;;;;;;5026347;28;20177;-64
2023/03/09 07:33:56;;;;;;;14.00;10.57;;;1.00;99.90;;;;;;5041227;28;20530;-65
2023/03/09 07:36:21;;;;;;;12.40;9.03;;;1.10;99.90;;;;;;5041277;28;20776;-64
2023/03/09 07:38:50;;;;;;;17.33;12.23;;;1.10;99.90;;;;;;5042491;28;20419;-66
2023/03/09 07:41:17;;;;;;;14.90;10.93;;;1.10;99.90;;;;;;5040382;28;20180;-66
2023/03/09 07:43:46;;;;;;;20.37;11.53;;;1.20;99.90;;;;;;5041831;28;20410;-62
2023/03/09 07:46:15;;;;;;;12.97;9.23;;;1.20;99.90;;;;;;5037888;28;20427;-65
2023/03/09 07:48:42;;;;;;;15.97;11.00;;;1.30;99.90;;;;;;5034094;28;20402;-66
2023/03/09 07:51:09;;;;;;;12.67;9.83;;;1.20;99.90;;;;;;5039612;28;20413;-65
2023/03/09 07:53:36;;;;;;;11.53;8.27;;;1.20;99.90;;;;;;5042007;28;20445;-64
2023/03/09 07:56:03;;;;;;;14.03;10.30;;;1.30;99.90;;;;;;5032303;28;20930;-64
2023/03/09 07:58:38;;;;;;;14.37;9.70;;;1.40;99.90;;;;;;5027925;28;20483;-63
2023/03/09 08:01:06;;;;;;;15.23;10.83;;;1.50;99.90;;;;;;5038691;28;20891;-64
2023/03/09 08:03:32;;;;;;;14.30;9.50;;;1.60;99.90;;;;;;5040650;28;20778;-64
2023/03/09 08:06:00;;;;;;;16.20;10.70;;;1.70;99.90;;;;;;5037177;28;20426;-64
2023/03/09 08:08:26;;;;;;;15.00;9.90;;;1.60;99.90;;;;;;5044168;28;20401;-65
2023/03/09 08:10:52;;;;;;;15.40;9.70;;;1.60;99.90;;;;;;5042665;28;20849;-65
2023/03/09 08:13:20;;;;;;;16.40;10.00;;;1.60;99.90;;;;;;5032736;28;20171;-66
2023/03/09 08:15:47;;;;;;;15.40;10.23;;;1.60;99.90;;;;;;5041274;28;20468;-66
2023/03/09 08:18:12;;;;;;;11.67;9.00;;;1.50;99.90;;;;;;5036537;28;20869;-64
2023/03/09 08:20:39;;;;;;;16.67;9.50;;;1.60;99.90;;;;;;5041253;28;20733;-64
2023/03/09 08:23:05;;;;;;;16.47;11.33;;;1.60;99.90;;;;;;5035115;28;20171;-65
2023/03/09 08:25:31;;;;;;;13.07;10.40;;;1.60;99.90;;;;;;5030073;28;20410;-67
2023/03/09 08:27:58;;;;;;;14.37;9.60;;;1.70;99.90;;;;;;5037691;28;20409;-63
2023/03/09 08:30:24;;;;;;;16.27;10.70;;;1.80;99.90;;;;;;5031930;28;20410;-66
2023/03/09 08:32:51;;;;;;;15.43;10.23;;;1.60;99.90;;;;;;5036937;28;20521;-64
2023/03/09 08:35:20;;;;;;;10.70;8.30;;;1.50;99.90;;;;;;5039749;28;20417;-63
2023/03/09 08:37:45;;;;;;;17.50;11.30;;;1.60;99.90;;;;;;5043788;28;20837;-64
2023/03/09 08:40:12;;;;;;;13.77;10.00;;;1.70;99.90;;;;;;5033670;28;20533;-64
2023/03/09 08:42:38;;;;;;;14.20;10.50;;;1.80;99.90;;;;;;5039675;28;20250;-64
2023/03/09 08:45:05;;;;;;;15.07;11.10;;;1.70;99.90;;;;;;5044914;28;21018;-63
2023/03/09 08:47:31;;;;;;;12.97;10.43;;;1.60;99.90;;;;;;5031569;28;20202;-64
2023/03/09 08:49:57;;;;;;;17.07;11.20;;;1.70;99.90;;;;;;5045912;28;20424;-66
2023/03/09 08:52:24;;;;;;;14.70;9.73;;;1.70;99.90;;;;;;5039509;28;20819;-64
2023/03/09 08:54:50;;;;;;;14.27;10.77;;;1.70;99.90;;;;;;5046420;28;20463;-64
2023/03/09 08:57:16;;;;;;;15.90;10.80;;;1.60;99.90;;;;;;5047991;28;20440;-65
2023/03/09 08:59:42;;;;;;;22.43;14.27;;;1.60;99.90;;;;;;5042653;28;21014;-65
2023/03/09 09:02:14;;;;;;;14.50;11.80;;;1.60;99.90;;;;;;5034839;28;20414;-65
2023/03/09 09:04:41;;;;;;;20.20;10.93;;;1.70;99.90;;;;;;5043940;28;20190;-64
2023/03/09 09:07:07;;;;;;;14.80;9.80;;;1.60;99.90;;;;;;5043330;28;20418;-64
2023/03/09 09:09:33;;;;;;;16.80;12.13;;;1.70;99.90;;;;;;5045994;28;20471;-65
2023/03/09 09:11:59;;;;;;;16.13;11.40;;;1.70;99.90;;;;;;5038845;28;20402;-64
2023/03/09 09:14:24;;;;;;;13.80;11.10;;;1.80;99.90;;;;;;5037505;28;20178;-64
2023/03/09 09:16:50;;;;;;;29.17;12.50;;;1.70;99.90;;;;;;5043091;28;20211;-65
2023/03/09 09:19:16;;;;;;;16.80;12.03;;;1.60;99.90;;;;;;5039987;28;20178;-65
2023/03/09 09:21:42;;;;;;;12.47;9.40;;;1.70;99.90;;;;;;5041957;28;20457;-65
2023/03/09 09:24:08;;;;;;;18.47;12.00;;;1.70;99.90;;;;;;5039154;28;20921;-64
2023/03/09 09:26:34;;;;;;;15.67;11.50;;;1.60;99.90;;;;;;5045253;28;20797;-66
2023/03/09 09:29:01;;;;;;;17.90;12.83;;;1.60;99.90;;;;;;5038444;28;20455;-66
2023/03/09 09:31:27;;;;;;;16.23;11.27;;;1.60;99.90;;;;;;5044831;28;20416;-65
2023/03/09 09:33:53;;;;;;;14.93;11.97;;;1.70;99.90;;;;;;5045009;28;20437;-65
2023/03/09 09:36:20;;;;;;;18.03;10.67;;;1.60;99.90;;;;;;5043527;28;20430;-65
2023/03/09 09:38:46;;;;;;;19.13;12.10;;;1.70;99.90;;;;;;5043638;28;20410;-66
2023/03/09 09:41:34;;;;;;;18.80;11.80;;;1.70;99.90;;;;;;5041691;28;20461;-65
2023/03/09 09:44:03;;;;;;;16.70;10.80;;;1.70;99.90;;;;;;5031356;28;20414;-65
2023/03/09 09:46:31;;;;;;;16.97;11.97;;;1.70;99.90;;;;;;5031924;28;20436;-68
2023/03/09 09:48:59;;;;;;;17.70;12.97;;;1.60;99.90;;;;;;5044504;28;20409;-65
2023/03/09 09:51:52;;;;;;;15.90;11.23;;;1.70;99.90;;;;;;5044211;28;20414;-65
2023/03/09 09:54:39;;;;;;;22.43;13.30;;;1.70;99.90;;;;;;5044504;28;20710;-64
2023/03/09 09:57:36;;;;;;;17.40;10.67;;;1.60;99.90;;;;;;5044485;28;20457;-64
2023/03/09 10:00:18;;;;;;;14.57;11.33;;;1.60;99.90;;;;;;5040945;28;20492;-63
2023/03/09 10:02:58;;;;;;;17.07;10.57;;;1.70;99.90;;;;;;5032433;28;20974;-64
2023/03/09 10:05:39;;;;;;;15.93;11.73;;;1.70;99.90;;;;;;5036590;28;20412;-64
2023/03/09 10:08:40;;;;;;;32.60;17.27;;;1.70;99.90;;;;;;5042578;28;20405;-64
2023/03/09 10:11:22;;;;;;;26.83;14.53;;;1.90;99.90;;;;;;5033354;28;20413;-63
2023/03/09 10:13:53;;;;;;;18.40;12.50;;;1.90;99.90;;;;;;5035874;28;20411;-64
2023/03/09 10:16:29;;;;;;;15.30;11.23;;;1.80;99.90;;;;;;5045902;28;20449;-64
2023/03/09 10:19:00;;;;;;;16.63;12.40;;;1.80;99.90;;;;;;5040896;28;20417;-63
2023/03/09 10:21:54;;;;;;;19.93;13.00;;;1.80;99.90;;;;;;5040678;28;20468;-65
2023/03/09 10:24:50;;;;;;;15.40;12.17;;;1.80;99.90;;;;;;5038890;28;20409;-65
2023/03/09 10:27:49;;;;;;;22.37;12.80;;;1.80;99.90;;;;;;5041385;28;20450;-64
2023/03/09 10:30:44;;;;;;;14.10;11.47;;;1.90;99.90;;;;;;5042754;28;20935;-64
2023/03/09 10:33:19;;;;;;;15.23;10.60;;;1.80;99.90;;;;;;5032590;28;20414;-64
2023/03/09 10:35:59;;;;;;;17.03;11.70;;;1.80;99.90;;;;;;5043915;28;20491;-66
2023/03/09 10:38:25;;;;;;;18.00;12.23;;;1.80;99.90;;;;;;5042862;28;20488;-66
2023/03/09 10:40:54;;;;;;;14.17;11.73;;;1.90;99.90;;;;;;5044043;28;20543;-66
2023/03/09 10:43:32;;;;;;;15.97;11.40;;;1.90;99.90;;;;;;5041403;28;20167;-64
2023/03/09 10:46:18;;;;;;;18.70;12.83;;;2.00;99.90;;;;;;5043709;28;20432;-64
2023/03/09 10:48:45;;;;;;;21.20;11.50;;;1.90;99.90;;;;;;5043219;28;20414;-64
2023/03/09 10:51:38;;;;;;;22.10;13.10;;;1.90;99.90;;;;;;5042688;28;20648;-64
2023/03/09 10:54:37;;;;;;;17.83;11.13;;;1.80;99.90;;;;;;5046503;28;20504;-64
2023/03/09 10:57:33;;;;;;;22.53;11.90;;;1.90;99.90;;;;;;5017662;28;20434;-64
2023/03/09 11:00:11;;;;;;;13.03;11.17;;;1.90;99.90;;;;;;5037984;28;20949;-63
2023/03/09 11:02:37;;;;;;;20.33;11.93;;;1.80;99.90;;;;;;5039173;28;20405;-64
2023/03/09 11:05:31;;;;;;;18.87;11.77;;;1.80;99.90;;;;;;5042951;28;20917;-63
2023/03/09 11:08:02;;;;;;;15.27;10.60;;;1.70;99.90;;;;;;5016014;28;20190;-65
2023/03/09 11:10:30;;;;;;;23.97;15.07;;;1.80;99.90;;;;;;5030141;28;20411;-62
2023/03/09 11:12:57;;;;;;;19.43;12.50;;;1.80;99.90;;;;;;5037541;28;20412;-63
2023/03/09 11:15:32;;;;;;;16.87;12.80;;;1.80;99.90;;;;;;5034093;28;20456;-65
2023/03/09 11:18:00;;;;;;;20.20;13.80;;;1.80;99.90;;;;;;5043346;28;20419;-65
2023/03/09 11:20:38;;;;;;;17.73;13.60;;;1.90;99.90;;;;;;5042142;28;20457;-63
2023/03/09 11:23:26;;;;;;;15.77;10.33;;;1.90;99.90;;;;;;5034541;28;20823;-64
2023/03/09 11:26:21;;;;;;;19.30;13.67;;;1.90;99.90;;;;;;5034644;28;20418;-65
2023/03/09 11:29:25;;;;;;;18.77;12.40;;;1.90;99.90;;;;;;5036427;28;20735;-64
2023/03/09 11:31:51;;;;;;;22.43;13.63;;;1.90;99.90;;;;;;5033609;28;20437;-66
2023/03/09 11:34:23;;;;;;;18.13;12.90;;;1.90;99.90;;;;;;5035602;28;20450;-64
2023/03/09 11:37:06;;;;;;;17.00;13.63;;;1.90;99.90;;;;;;5032909;28;20196;-65
2023/03/09 11:39:59;;;;;;;20.20;13.00;;;2.00;99.90;;;;;;5035431;28;20397;-65
2023/03/09 11:42:40;;;;;;;23.60;14.57;;;2.00;99.90;;;;;;5028570;28;20477;-65
2023/03/09 11:45:15;;;;;;;20.97;12.13;;;2.00;99.90;;;;;;5039535;28;20401;-65
2023/03/09 11:47:44;;;;;;;18.97;13.40;;;2.00;99.90;;;;;;5039492;28;20413;-64
2023/03/09 11:50:18;;;;;;;20.87;12.83;;;2.00;99.90;;;;;;5046690;28;20409;-65
2023/03/09 11:52:52;;;;;;;19.23;12.50;;;1.90;99.90;;;;;;5039645;28;20962;-65
2023/03/09 11:55:22;;;;;;;23.33;12.80;;;2.00;99.90;;;;;;5040714;28;20394;-64
2023/03/09 11:57:54;;;;;;;22.70;14.07;;;2.10;99.90;;;;;;5041893;28;20410;-66
2023/03/09 12:00:21;;;;;;;24.30;13.23;;;2.10;99.90;;;;;;5039528;28;20924;-66
2023/03/09 12:03:09;;;;;;;20.03;13.23;;;2.10;99.90;;;;;;5034753;28;20901;-66
2023/03/09 12:05:38;;;;;;;28.17;15.60;;;2.10;99.90;;;;;;5024899;28;20398;-66
2023/03/09 12:08:15;;;;;;;19.30;13.50;;;2.10;99.90;;;;;;5038978;28;20416;-65
2023/03/09 12:10:50;;;;;;;20.53;13.20;;;2.20;99.90;;;;;;5037084;28;20413;-67
2023/03/09 12:13:22;;;;;;;22.30;13.60;;;2.10;99.90;;;;;;5042799;28;20444;-66
2023/03/09 12:16:00;;;;;;;19.63;14.83;;;2.00;99.90;;;;;;5043571;28;20478;-66
2023/03/09 12:19:00;;;;;;;21.90;12.53;;;2.10;99.90;;;;;;5039140;28;20960;-66
2023/03/09 12:21:44;;;;;;;20.37;13.97;;;2.10;99.90;;;;;;5028451;28;20461;-64
2023/03/09 12:24:40;;;;;;;19.23;13.00;;;2.10;99.90;;;;;;5036312;28;20418;-65
2023/03/09 12:27:35;;;;;;;20.27;14.97;;;2.10;99.90;;;;;;5035079;28;20446;-66
2023/03/09 12:30:00;;;;;;;20.47;15.27;;;2.10;99.90;;;;;;5035734;28;20454;-65
2023/03/09 12:32:26;;;;;;;21.93;16.30;;;2.20;99.90;;;;;;5045390;28;20897;-65
2023/03/09 12:34:54;;;;;;;22.57;15.20;;;2.10;99.90;;;;;;5039617;28;20254;-65
2023/03/09 12:37:41;;;;;;;22.70;15.23;;;2.00;99.90;;;;;;5042771;28;20198;-65
2023/03/09 12:40:15;;;;;;;24.17;15.10;;;2.10;99.90;;;;;;5046106;28;20898;-64
2023/03/09 12:42:41;;;;;;;22.23;15.10;;;2.00;99.90;;;;;;5039735;28;20954;-65
2023/03/09 12:45:10;;;;;;;20.90;14.73;;;2.00;99.90;;;;;;5044650;28;20492;-64
2023/03/09 12:47:43;;;;;;;20.77;15.27;;;2.00;99.90;;;;;;5045108;28;20441;-65
2023/03/09 12:50:37;;;;;;;29.77;16.20;;;2.00;99.90;;;;;;5051088;28;20937;-64
2023/03/09 12:53:14;;;;;;;27.27;16.37;;;2.00;99.90;;;;;;5039167;28;20770;-65
2023/03/09 12:55:39;;;;;;;22.33;15.00;;;2.00;99.90;;;;;;5037183;28;20466;-65
2023/03/09 12:58:17;;;;;;;21.30;14.87;;;2.00;99.90;;;;;;5042318;28;20492;-64